sensor_id;sensor_type;location;lat;lon;timestamp;pressure;altitude;pressure_sealevel;temperature;humidity
70302;BME280;57706;56.326;43.882;2023-03-24T00:00:10;99821.16;;;6.94;67.87
70302;BME280;57706;56.326;43.882;2023-03-24T00:02:37;99822.50;;;6.98;67.63
70302;BME280;57706;56.326;43.882;2023-03-24T00:05:26;99806.44;;;6.93;67.89
70302;BME280;57706;56.326;43.882;2023-03-24T00:07:53;99808.06;;;6.85;68.00
70302;BME280;57706;56.326;43.882;2023-03-24T00:10:19;99794.50;;;7.16;66.73
70302;BME280;57706;56.326;43.882;2023-03-24T00:12:47;99787.66;;;6.89;67.76
70302;BME280;57706;56.326;43.882;2023-03-24T00:15:17;99788.66;;;6.70;68.16
70302;BME280;57706;56.326;43.882;2023-03-24T00:17:44;99783.66;;;7.03;67.02
70302;BME280;57706;56.326;43.882;2023-03-24T00:20:13;99789.66;;;7.22;66.14
70302;BME280;57706;56.326;43.882;2023-03-24T00:22:41;99789.19;;;7.00;66.74
70302;BME280;57706;56.326;43.882;2023-03-24T00:25:10;99780.78;;;7.14;66.28
70302;BME280;57706;56.326;43.882;2023-03-24T00:27:37;99774.97;;;7.29;65.72
70302;BME280;57706;56.326;43.882;2023-03-24T00:30:08;99773.00;;;7.23;65.72
70302;BME280;57706;56.326;43.882;2023-03-24T00:32:36;99757.91;;;7.16;65.72
70302;BME280;57706;56.326;43.882;2023-03-24T00:35:05;99756.00;;;7.19;65.60
70302;BME280;57706;56.326;43.882;2023-03-24T00:37:34;99764.31;;;6.87;66.55
70302;BME280;57706;56.326;43.882;2023-03-24T00:40:07;99763.00;;;7.18;65.64
70302;BME280;57706;56.326;43.882;2023-03-24T00:42:35;99758.84;;;7.07;65.80
70302;BME280;57706;56.326;43.882;2023-03-24T00:45:03;99747.78;;;7.13;65.56
70302;BME280;57706;56.326;43.882;2023-03-24T00:47:31;99751.38;;;7.12;65.79
70302;BME280;57706;56.326;43.882;2023-03-24T00:50:07;99749.22;;;6.81;66.61
70302;BME280;57706;56.326;43.882;2023-03-24T00:52:34;99745.44;;;7.02;65.97
70302;BME280;57706;56.326;43.882;2023-03-24T00:55:02;99741.78;;;6.86;66.49
70302;BME280;57706;56.326;43.882;2023-03-24T00:57:30;99744.19;;;7.14;65.38
70302;BME280;57706;56.326;43.882;2023-03-24T01:00:02;99739.72;;;6.98;66.09
70302;BME280;57706;56.326;43.882;2023-03-24T01:02:38;99732.06;;;7.05;65.75
70302;BME280;57706;56.326;43.882;2023-03-24T01:05:05;99739.59;;;7.08;65.81
70302;BME280;57706;56.326;43.882;2023-03-24T01:07:32;99737.56;;;6.94;66.02
70302;BME280;57706;56.326;43.882;2023-03-24T01:09:58;99741.50;;;6.98;65.90
70302;BME280;57706;56.326;43.882;2023-03-24T01:12:29;99737.47;;;6.77;66.61
70302;BME280;57706;56.326;43.882;2023-03-24T01:15:00;99718.72;;;6.82;66.21
70302;BME280;57706;56.326;43.882;2023-03-24T01:17:28;99724.66;;;6.66;67.20
70302;BME280;57706;56.326;43.882;2023-03-24T01:19:55;99727.03;;;6.77;66.59
70302;BME280;57706;56.326;43.882;2023-03-24T01:22:26;99730.44;;;7.04;65.79
70302;BME280;57706;56.326;43.882;2023-03-24T01:24:52;99723.16;;;6.89;66.15
70302;BME280;57706;56.326;43.882;2023-03-24T01:27:18;99713.69;;;6.88;66.10
70302;BME280;57706;56.326;43.882;2023-03-24T01:29:44;99711.06;;;6.88;65.98
70302;BME280;57706;56.326;43.882;2023-03-24T01:32:10;99710.00;;;6.99;65.70
70302;BME280;57706;56.326;43.882;2023-03-24T01:34:36;99710.53;;;7.11;65.28
70302;BME280;57706;56.326;43.882;2023-03-24T01:37:02;99701.00;;;6.94;65.79
70302;BME280;57706;56.326;43.882;2023-03-24T01:39:29;99710.25;;;7.23;64.87
70302;BME280;57706;56.326;43.882;2023-03-24T01:41:55;99696.34;;;7.14;64.94
70302;BME280;57706;56.326;43.882;2023-03-24T01:44:33;99696.28;;;6.97;65.51
70302;BME280;57706;56.326;43.882;2023-03-24T01:47:00;99692.66;;;6.90;65.76
70302;BME280;57706;56.326;43.882;2023-03-24T01:49:59;99694.84;;;7.03;65.54
70302;BME280;57706;56.326;43.882;2023-03-24T01:52:30;99682.41;;;7.05;65.49
70302;BME280;57706;56.326;43.882;2023-03-24T01:55:02;99666.97;;;7.28;64.53
70302;BME280;57706;56.326;43.882;2023-03-24T01:57:36;99681.84;;;7.20;65.01
70302;BME280;57706;56.326;43.882;2023-03-24T02:00:10;99669.13;;;7.33;64.46
70302;BME280;57706;56.326;43.882;2023-03-24T02:02:53;99690.69;;;7.27;64.44
70302;BME280;57706;56.326;43.882;2023-03-24T02:05:29;99674.47;;;7.15;65.17
70302;BME280;57706;56.326;43.882;2023-03-24T02:10:43;99682.06;;;7.00;65.63
70302;BME280;57706;56.326;43.882;2023-03-24T02:13:09;99666.00;;;6.86;66.53
70302;BME280;57706;56.326;43.882;2023-03-24T02:16:02;99661.94;;;6.92;66.46
70302;BME280;57706;56.326;43.882;2023-03-24T02:29:15;99638.97;;;6.69;67.73
70302;BME280;57706;56.326;43.882;2023-03-24T02:45:26;99610.97;;;6.88;67.75
70302;BME280;57706;56.326;43.882;2023-03-24T02:50:41;99605.34;;;7.09;66.92
70302;BME280;57706;56.326;43.882;2023-03-24T02:53:21;99597.81;;;7.06;67.36
70302;BME280;57706;56.326;43.882;2023-03-24T03:00:11;99605.72;;;7.23;66.75
70302;BME280;57706;56.326;43.882;2023-03-24T03:03:15;99586.75;;;7.21;66.90
70302;BME280;57706;56.326;43.882;2023-03-24T03:05:58;99589.03;;;7.24;67.02
70302;BME280;57706;56.326;43.882;2023-03-24T03:08:28;99580.56;;;7.22;67.06
70302;BME280;57706;56.326;43.882;2023-03-24T03:10:57;99586.16;;;7.43;66.27
70302;BME280;57706;56.326;43.882;2023-03-24T03:13:34;99590.06;;;7.39;66.50
70302;BME280;57706;56.326;43.882;2023-03-24T03:16:09;99573.41;;;7.49;66.33
70302;BME280;57706;56.326;43.882;2023-03-24T03:18:47;99569.47;;;7.36;66.58
70302;BME280;57706;56.326;43.882;2023-03-24T03:21:18;99571.75;;;7.39;66.65
70302;BME280;57706;56.326;43.882;2023-03-24T03:23:56;99569.50;;;7.53;66.25
70302;BME280;57706;56.326;43.882;2023-03-24T03:26:24;99567.19;;;7.58;65.81
70302;BME280;57706;56.326;43.882;2023-03-24T03:28:56;99573.25;;;7.42;66.53
70302;BME280;57706;56.326;43.882;2023-03-24T03:31:43;99565.72;;;7.47;66.38
70302;BME280;57706;56.326;43.882;2023-03-24T03:40:09;99553.81;;;7.53;66.18
70302;BME280;57706;56.326;43.882;2023-03-24T03:42:40;99561.16;;;7.41;66.87
70302;BME280;57706;56.326;43.882;2023-03-24T03:45:07;99552.78;;;7.21;67.42
70302;BME280;57706;56.326;43.882;2023-03-24T03:47:35;99540.38;;;7.48;66.91
70302;BME280;57706;56.326;43.882;2023-03-24T03:50:02;99548.72;;;7.76;65.58
70302;BME280;57706;56.326;43.882;2023-03-24T03:52:29;99545.47;;;7.49;66.71
70302;BME280;57706;56.326;43.882;2023-03-24T03:54:56;99549.88;;;7.49;66.87
70302;BME280;57706;56.326;43.882;2023-03-24T03:57:23;99530.56;;;7.41;67.31
70302;BME280;57706;56.326;43.882;2023-03-24T04:00:18;99531.91;;;7.62;66.65
70302;BME280;57706;56.326;43.882;2023-03-24T04:03:12;99549.22;;;7.63;66.86
70302;BME280;57706;56.326;43.882;2023-03-24T04:14:45;99540.38;;;7.39;68.78
70302;BME280;57706;56.326;43.882;2023-03-24T04:17:58;99544.16;;;7.53;67.86
70302;BME280;57706;56.326;43.882;2023-03-24T04:27:20;99514.56;;;7.78;67.55
70302;BME280;57706;56.326;43.882;2023-03-24T04:30:10;99510.66;;;7.57;68.46
70302;BME280;57706;56.326;43.882;2023-03-24T04:35:26;99509.78;;;7.98;67.76
70302;BME280;57706;56.326;43.882;2023-03-24T04:38:21;99498.53;;;7.81;68.27
70302;BME280;57706;56.326;43.882;2023-03-24T04:41:02;99499.34;;;7.81;68.39
70302;BME280;57706;56.326;43.882;2023-03-24T04:43:32;99512.22;;;7.91;68.05
70302;BME280;57706;56.326;43.882;2023-03-24T04:46:02;99502.47;;;7.85;68.04
70302;BME280;57706;56.326;43.882;2023-03-24T04:48:34;99508.28;;;8.04;67.64
70302;BME280;57706;56.326;43.882;2023-03-24T04:51:15;99511.19;;;8.17;66.92
70302;BME280;57706;56.326;43.882;2023-03-24T04:53:54;99490.03;;;7.79;68.25
70302;BME280;57706;56.326;43.882;2023-03-24T04:59:06;99488.94;;;8.21;66.87
70302;BME280;57706;56.326;43.882;2023-03-24T05:01:33;99499.44;;;8.13;67.17
70302;BME280;57706;56.326;43.882;2023-03-24T05:04:26;99500.41;;;8.20;67.19
70302;BME280;57706;56.326;43.882;2023-03-24T05:06:53;99485.72;;;8.11;67.68
70302;BME280;57706;56.326;43.882;2023-03-24T05:09:23;99485.69;;;8.19;67.42
70302;BME280;57706;56.326;43.882;2023-03-24T05:11:50;99492.06;;;8.17;67.40
70302;BME280;57706;56.326;43.882;2023-03-24T05:14:17;99490.56;;;8.22;66.98
70302;BME280;57706;56.326;43.882;2023-03-24T05:16:43;99507.78;;;8.17;67.08
70302;BME280;57706;56.326;43.882;2023-03-24T05:19:10;99484.25;;;8.48;66.17
70302;BME280;57706;56.326;43.882;2023-03-24T05:21:36;99485.59;;;8.52;65.93
70302;BME280;57706;56.326;43.882;2023-03-24T05:24:04;99470.16;;;8.49;66.13
70302;BME280;57706;56.326;43.882;2023-03-24T05:26:30;99473.72;;;8.65;65.44
70302;BME280;57706;56.326;43.882;2023-03-24T05:29:05;99490.72;;;8.69;65.29
70302;BME280;57706;56.326;43.882;2023-03-24T05:31:32;99471.03;;;8.73;65.26
70302;BME280;57706;56.326;43.882;2023-03-24T05:34:07;99481.56;;;8.97;64.53
70302;BME280;57706;56.326;43.882;2023-03-24T05:36:44;99480.25;;;8.69;65.16
70302;BME280;57706;56.326;43.882;2023-03-24T05:39:12;99472.81;;;8.81;65.04
70302;BME280;57706;56.326;43.882;2023-03-24T05:41:58;99483.31;;;8.81;65.19
70302;BME280;57706;56.326;43.882;2023-03-24T05:44:24;99498.81;;;8.82;65.14
70302;BME280;57706;56.326;43.882;2023-03-24T05:47:11;99483.97;;;8.75;66.02
70302;BME280;57706;56.326;43.882;2023-03-24T05:49:38;99482.25;;;8.90;64.95
70302;BME280;57706;56.326;43.882;2023-03-24T05:52:04;99496.94;;;9.00;64.70
70302;BME280;57706;56.326;43.882;2023-03-24T05:54:30;99441.00;;;9.07;64.33
70302;BME280;57706;56.326;43.882;2023-03-24T05:57:11;99483.19;;;9.21;63.92
70302;BME280;57706;56.326;43.882;2023-03-24T05:59:49;99486.81;;;9.20;64.08
70302;BME280;57706;56.326;43.882;2023-03-24T06:02:36;99475.03;;;9.16;64.71
70302;BME280;57706;56.326;43.882;2023-03-24T06:05:12;99471.13;;;9.12;64.42
70302;BME280;57706;56.326;43.882;2023-03-24T06:07:39;99478.75;;;8.98;65.06
70302;BME280;57706;56.326;43.882;2023-03-24T06:10:08;99481.22;;;9.00;65.08
70302;BME280;57706;56.326;43.882;2023-03-24T06:12:43;99477.06;;;9.05;65.29
70302;BME280;57706;56.326;43.882;2023-03-24T06:15:09;99464.13;;;9.04;65.31
70302;BME280;57706;56.326;43.882;2023-03-24T06:17:36;99453.13;;;9.08;64.93
70302;BME280;57706;56.326;43.882;2023-03-24T06:20:09;99447.41;;;9.28;64.26
70302;BME280;57706;56.326;43.882;2023-03-24T06:23:00;99456.59;;;9.24;64.69
70302;BME280;57706;56.326;43.882;2023-03-24T06:25:34;99447.41;;;9.28;64.80
70302;BME280;57706;56.326;43.882;2023-03-24T06:28:11;99459.22;;;9.24;65.98
70302;BME280;57706;56.326;43.882;2023-03-24T06:30:42;99431.91;;;9.18;65.96
70302;BME280;57706;56.326;43.882;2023-03-24T06:33:08;99430.16;;;9.34;65.84
70302;BME280;57706;56.326;43.882;2023-03-24T06:35:36;99433.22;;;9.38;65.26
70302;BME280;57706;56.326;43.882;2023-03-24T06:38:06;99435.06;;;9.52;65.07
70302;BME280;57706;56.326;43.882;2023-03-24T06:40:32;99444.56;;;9.53;64.68
70302;BME280;57706;56.326;43.882;2023-03-24T06:42:59;99426.13;;;9.61;64.08
70302;BME280;57706;56.326;43.882;2023-03-24T06:45:25;99424.75;;;9.50;64.73
70302;BME280;57706;56.326;43.882;2023-03-24T06:47:52;99414.63;;;9.47;63.95
70302;BME280;57706;56.326;43.882;2023-03-24T06:50:22;99411.81;;;9.79;62.69
70302;BME280;57706;56.326;43.882;2023-03-24T06:52:52;99416.06;;;10.10;61.51
70302;BME280;57706;56.326;43.882;2023-03-24T06:55:19;99412.53;;;10.03;61.54
70302;BME280;57706;56.326;43.882;2023-03-24T06:57:46;99417.41;;;10.06;61.37
70302;BME280;57706;56.326;43.882;2023-03-24T07:00:27;99411.00;;;9.78;62.27
70302;BME280;57706;56.326;43.882;2023-03-24T07:03:14;99408.66;;;9.84;62.14
70302;BME280;57706;56.326;43.882;2023-03-24T07:05:46;99411.63;;;9.66;62.63
70302;BME280;57706;56.326;43.882;2023-03-24T07:08:11;99411.53;;;9.44;63.93
70302;BME280;57706;56.326;43.882;2023-03-24T07:10:40;99407.63;;;9.40;64.22
70302;BME280;57706;56.326;43.882;2023-03-24T07:13:07;99420.19;;;9.29;64.46
70302;BME280;57706;56.326;43.882;2023-03-24T07:15:35;99402.13;;;9.34;64.20
70302;BME280;57706;56.326;43.882;2023-03-24T07:18:02;99398.22;;;9.30;64.36
70302;BME280;57706;56.326;43.882;2023-03-24T07:20:34;99396.84;;;9.19;64.23
70302;BME280;57706;56.326;43.882;2023-03-24T07:23:07;99397.34;;;9.38;63.69
70302;BME280;57706;56.326;43.882;2023-03-24T07:26:02;99398.78;;;9.41;63.54
70302;BME280;57706;56.326;43.882;2023-03-24T07:28:37;99422.19;;;9.42;63.68
70302;BME280;57706;56.326;43.882;2023-03-24T07:31:04;99410.16;;;9.18;64.73
70302;BME280;57706;56.326;43.882;2023-03-24T07:33:31;99402.09;;;9.19;64.62
70302;BME280;57706;56.326;43.882;2023-03-24T07:35:57;99395.91;;;9.50;63.28
70302;BME280;57706;56.326;43.882;2023-03-24T07:38:25;99396.88;;;9.64;62.84
70302;BME280;57706;56.326;43.882;2023-03-24T07:40:57;99390.66;;;9.66;62.65
70302;BME280;57706;56.326;43.882;2023-03-24T07:43:24;99394.00;;;9.74;62.54
70302;BME280;57706;56.326;43.882;2023-03-24T07:46:00;99385.31;;;9.74;62.65
70302;BME280;57706;56.326;43.882;2023-03-24T07:48:27;99374.78;;;10.04;61.70
70302;BME280;57706;56.326;43.882;2023-03-24T07:50:53;99372.00;;;9.90;61.98
70302;BME280;57706;56.326;43.882;2023-03-24T07:53:45;99374.25;;;10.09;61.50
70302;BME280;57706;56.326;43.882;2023-03-24T07:56:19;99363.06;;;10.22;61.33
70302;BME280;57706;56.326;43.882;2023-03-24T07:58:51;99379.22;;;10.40;60.70
70302;BME280;57706;56.326;43.882;2023-03-24T08:01:30;99369.94;;;10.59;60.31
70302;BME280;57706;56.326;43.882;2023-03-24T08:03:59;99377.88;;;10.88;59.28
70302;BME280;57706;56.326;43.882;2023-03-24T08:06:51;99363.31;;;10.85;59.32
70302;BME280;57706;56.326;43.882;2023-03-24T08:09:18;99357.47;;;10.90;59.09
70302;BME280;57706;56.326;43.882;2023-03-24T08:11:44;99362.50;;;10.85;59.39
70302;BME280;57706;56.326;43.882;2023-03-24T08:14:10;99357.44;;;11.12;58.45
70302;BME280;57706;56.326;43.882;2023-03-24T08:16:36;99351.16;;;10.84;59.03
70302;BME280;57706;56.326;43.882;2023-03-24T08:19:03;99364.88;;;10.80;59.36
70302;BME280;57706;56.326;43.882;2023-03-24T08:21:29;99348.94;;;10.81;59.41
70302;BME280;57706;56.326;43.882;2023-03-24T08:23:55;99344.84;;;10.79;59.57
70302;BME280;57706;56.326;43.882;2023-03-24T08:26:21;99345.47;;;10.81;59.29
70302;BME280;57706;56.326;43.882;2023-03-24T08:28:47;99343.09;;;10.86;59.19
70302;BME280;57706;56.326;43.882;2023-03-24T08:31:14;99342.69;;;11.11;58.81
70302;BME280;57706;56.326;43.882;2023-03-24T08:33:40;99328.78;;;11.17;58.33
70302;BME280;57706;56.326;43.882;2023-03-24T08:36:06;99343.59;;;11.32;58.13
70302;BME280;57706;56.326;43.882;2023-03-24T08:38:32;99337.00;;;11.42;57.72
70302;BME280;57706;56.326;43.882;2023-03-24T08:41:01;99354.28;;;11.23;58.03
70302;BME280;57706;56.326;43.882;2023-03-24T08:43:33;99331.84;;;10.92;59.27
70302;BME280;57706;56.326;43.882;2023-03-24T08:46:01;99334.31;;;11.00;59.30
70302;BME280;57706;56.326;43.882;2023-03-24T08:48:28;99317.84;;;11.20;58.59
70302;BME280;57706;56.326;43.882;2023-03-24T08:50:56;99327.06;;;10.81;59.52
70302;BME280;57706;56.326;43.882;2023-03-24T08:53:22;99329.81;;;10.94;59.51
70302;BME280;57706;56.326;43.882;2023-03-24T08:55:48;99324.25;;;11.04;58.98
70302;BME280;57706;56.326;43.882;2023-03-24T08:58:15;99323.41;;;11.04;59.07
70302;BME280;57706;56.326;43.882;2023-03-24T09:00:42;99320.81;;;10.82;59.65
70302;BME280;57706;56.326;43.882;2023-03-24T09:03:12;99319.53;;;10.99;59.42
70302;BME280;57706;56.326;43.882;2023-03-24T09:05:39;99315.41;;;10.90;59.53
70302;BME280;57706;56.326;43.882;2023-03-24T09:08:05;99322.06;;;10.86;59.52
70302;BME280;57706;56.326;43.882;2023-03-24T09:10:32;99318.84;;;10.62;60.41
70302;BME280;57706;56.326;43.882;2023-03-24T09:12:58;99311.31;;;10.37;61.35
70302;BME280;57706;56.326;43.882;2023-03-24T09:15:24;99329.88;;;10.51;61.00
70302;BME280;57706;56.326;43.882;2023-03-24T09:17:50;99325.22;;;10.53;61.01
70302;BME280;57706;56.326;43.882;2023-03-24T09:20:16;99322.44;;;10.83;59.98
70302;BME280;57706;56.326;43.882;2023-03-24T09:22:45;99309.81;;;10.71;59.96
70302;BME280;57706;56.326;43.882;2023-03-24T09:25:13;99306.72;;;10.90;59.59
70302;BME280;57706;56.326;43.882;2023-03-24T09:27:40;99312.31;;;10.80;60.22
70302;BME280;57706;56.326;43.882;2023-03-24T09:30:07;99316.41;;;10.89;60.18
70302;BME280;57706;56.326;43.882;2023-03-24T09:32:34;99317.53;;;11.01;60.01
70302;BME280;57706;56.326;43.882;2023-03-24T09:35:00;99318.03;;;10.90;60.43
70302;BME280;57706;56.326;43.882;2023-03-24T09:37:30;99328.72;;;10.60;61.76
70302;BME280;57706;56.326;43.882;2023-03-24T09:39:57;99306.91;;;10.01;64.73
70302;BME280;57706;56.326;43.882;2023-03-24T09:42:29;99308.53;;;10.24;64.11
70302;BME280;57706;56.326;43.882;2023-03-24T09:45:02;99307.84;;;10.37;64.53
70302;BME280;57706;56.326;43.882;2023-03-24T09:49:59;99303.03;;;9.97;65.13
70302;BME280;57706;56.326;43.882;2023-03-24T09:52:39;99302.88;;;9.83;66.77
70302;BME280;57706;56.326;43.882;2023-03-24T09:55:16;99298.19;;;9.63;67.35
70302;BME280;57706;56.326;43.882;2023-03-24T09:57:44;99295.09;;;9.75;65.87
70302;BME280;57706;56.326;43.882;2023-03-24T10:00:27;99293.56;;;9.81;66.56
70302;BME280;57706;56.326;43.882;2023-03-24T10:02:58;99284.53;;;9.68;67.77
70302;BME280;57706;56.326;43.882;2023-03-24T10:05:30;99291.25;;;9.56;66.97
70302;BME280;57706;56.326;43.882;2023-03-24T10:08:08;99277.22;;;9.63;67.13
70302;BME280;57706;56.326;43.882;2023-03-24T10:10:56;99271.38;;;9.83;66.80
70302;BME280;57706;56.326;43.882;2023-03-24T10:13:39;99272.91;;;10.14;65.63
70302;BME280;57706;56.326;43.882;2023-03-24T10:21:20;99251.25;;;9.90;67.11
70302;BME280;57706;56.326;43.882;2023-03-24T10:24:08;99272.66;;;9.87;66.56
70302;BME280;57706;56.326;43.882;2023-03-24T10:31:50;99248.97;;;9.66;67.51
70302;BME280;57706;56.326;43.882;2023-03-24T10:34:17;99251.34;;;9.60;68.08
70302;BME280;57706;56.326;43.882;2023-03-24T10:36:44;99252.59;;;9.64;69.14
70302;BME280;57706;56.326;43.882;2023-03-24T10:39:14;99242.50;;;9.61;68.99
70302;BME280;57706;56.326;43.882;2023-03-24T10:41:42;99261.31;;;9.50;69.32
70302;BME280;57706;56.326;43.882;2023-03-24T10:44:09;99243.50;;;9.60;68.80
70302;BME280;57706;56.326;43.882;2023-03-24T10:46:50;99244.31;;;9.46;69.29
70302;BME280;57706;56.326;43.882;2023-03-24T10:49:19;99244.25;;;9.39;68.89
70302;BME280;57706;56.326;43.882;2023-03-24T10:51:50;99236.09;;;9.34;70.20
70302;BME280;57706;56.326;43.882;2023-03-24T10:54:26;99258.44;;;9.15;70.87
70302;BME280;57706;56.326;43.882;2023-03-24T10:59:28;99246.66;;;8.80;73.09
70302;BME280;57706;56.326;43.882;2023-03-24T11:01:59;99249.34;;;8.57;74.85
70302;BME280;57706;56.326;43.882;2023-03-24T11:04:28;99242.06;;;8.44;77.07
70302;BME280;57706;56.326;43.882;2023-03-24T11:07:16;99244.63;;;8.29;77.20
70302;BME280;57706;56.326;43.882;2023-03-24T11:12:43;99253.72;;;8.18;79.10
70302;BME280;57706;56.326;43.882;2023-03-24T11:15:25;99251.38;;;8.23;80.02
70302;BME280;57706;56.326;43.882;2023-03-24T11:20:39;99250.44;;;8.16;80.78
70302;BME280;57706;56.326;43.882;2023-03-24T11:23:08;99243.84;;;8.05;80.21
70302;BME280;57706;56.326;43.882;2023-03-24T11:25:38;99236.84;;;7.97;80.74
70302;BME280;57706;56.326;43.882;2023-03-24T11:28:07;99226.00;;;8.01;82.46
70302;BME280;57706;56.326;43.882;2023-03-24T11:30:52;99230.22;;;8.10;82.37
70302;BME280;57706;56.326;43.882;2023-03-24T11:33:27;99234.53;;;8.03;80.70
70302;BME280;57706;56.326;43.882;2023-03-24T11:47:34;99212.75;;;8.25;83.85
70302;BME280;57706;56.326;43.882;2023-03-24T11:55:21;99216.22;;;8.03;84.60
70302;BME280;57706;56.326;43.882;2023-03-24T11:58:36;99215.31;;;7.87;83.33
70302;BME280;57706;56.326;43.882;2023-03-24T12:00:58;99210.09;;;7.87;84.12
70302;BME280;57706;56.326;43.882;2023-03-24T12:06:44;99229.03;;;7.89;83.65
70302;BME280;57706;56.326;43.882;2023-03-24T12:09:26;99227.06;;;7.91;85.76
70302;BME280;57706;56.326;43.882;2023-03-24T12:17:50;99257.47;;;7.61;86.08
70302;BME280;57706;56.326;43.882;2023-03-24T12:20:42;99238.34;;;7.68;85.68
70302;BME280;57706;56.326;43.882;2023-03-24T12:26:33;99231.31;;;7.61;87.21
70302;BME280;57706;56.326;43.882;2023-03-24T12:35:08;99242.66;;;7.53;88.03
70302;BME280;57706;56.326;43.882;2023-03-24T12:43:15;99230.53;;;7.60;88.41
70302;BME280;57706;56.326;43.882;2023-03-24T12:45:53;99221.34;;;7.64;87.59
70302;BME280;57706;56.326;43.882;2023-03-24T12:50:57;99231.81;;;7.64;86.86
70302;BME280;57706;56.326;43.882;2023-03-24T12:54:00;99209.03;;;7.73;86.12
70302;BME280;57706;56.326;43.882;2023-03-24T12:59:37;99216.47;;;7.84;86.09
70302;BME280;57706;56.326;43.882;2023-03-24T13:02:21;99216.72;;;7.98;85.83
70302;BME280;57706;56.326;43.882;2023-03-24T13:04:53;99215.22;;;8.04;85.71
70302;BME280;57706;56.326;43.882;2023-03-24T13:07:23;99215.38;;;8.02;86.02
70302;BME280;57706;56.326;43.882;2023-03-24T13:10:00;99212.59;;;8.04;85.26
70302;BME280;57706;56.326;43.882;2023-03-24T13:12:52;99219.22;;;7.91;86.00
70302;BME280;57706;56.326;43.882;2023-03-24T13:15:38;99221.19;;;7.89;86.14
70302;BME280;57706;56.326;43.882;2023-03-24T13:23:29;99222.97;;;7.97;86.71
70302;BME280;57706;56.326;43.882;2023-03-24T13:31:35;99219.13;;;7.53;88.42
70302;BME280;57706;56.326;43.882;2023-03-24T13:34:04;99212.66;;;7.72;88.54
70302;BME280;57706;56.326;43.882;2023-03-24T13:36:43;99205.66;;;7.64;88.21
70302;BME280;57706;56.326;43.882;2023-03-24T13:39:13;99213.19;;;7.59;88.85
70302;BME280;57706;56.326;43.882;2023-03-24T13:41:40;99217.13;;;7.55;88.67
70302;BME280;57706;56.326;43.882;2023-03-24T13:44:22;99211.91;;;7.55;89.32
70302;BME280;57706;56.326;43.882;2023-03-24T13:49:30;99218.28;;;7.52;89.27
70302;BME280;57706;56.326;43.882;2023-03-24T13:52:01;99215.56;;;7.46;88.61
70302;BME280;57706;56.326;43.882;2023-03-24T13:54:28;99210.28;;;7.54;88.71
70302;BME280;57706;56.326;43.882;2023-03-24T14:13:00;99223.16;;;7.24;90.29
70302;BME280;57706;56.326;43.882;2023-03-24T14:21:03;99219.63;;;7.00;91.90
70302;BME280;57706;56.326;43.882;2023-03-24T14:26:12;99216.44;;;6.81;92.53
70302;BME280;57706;56.326;43.882;2023-03-24T14:28:40;99212.19;;;6.80;93.20
70302;BME280;57706;56.326;43.882;2023-03-24T14:31:17;99214.59;;;6.98;92.54
70302;BME280;57706;56.326;43.882;2023-03-24T14:38:50;99209.81;;;7.10;91.49
70302;BME280;57706;56.326;43.882;2023-03-24T14:41:26;99228.47;;;6.99;91.22
70302;BME280;57706;56.326;43.882;2023-03-24T14:43:57;99214.78;;;6.80;92.21
70302;BME280;57706;56.326;43.882;2023-03-24T14:46:45;99224.75;;;6.77;92.84
70302;BME280;57706;56.326;43.882;2023-03-24T14:49:20;99218.34;;;6.96;92.36
70302;BME280;57706;56.326;43.882;2023-03-24T14:51:58;99216.50;;;7.05;91.71
70302;BME280;57706;56.326;43.882;2023-03-24T14:56:55;99227.19;;;6.86;92.07
70302;BME280;57706;56.326;43.882;2023-03-24T15:02:42;99225.84;;;6.99;91.84
70302;BME280;57706;56.326;43.882;2023-03-24T15:08:14;99227.50;;;6.92;91.74
70302;BME280;57706;56.326;43.882;2023-03-24T15:10:48;99235.66;;;6.97;91.00
70302;BME280;57706;56.326;43.882;2023-03-24T15:15:50;99239.25;;;6.96;90.76
70302;BME280;57706;56.326;43.882;2023-03-24T15:18:16;99232.22;;;6.96;90.76
70302;BME280;57706;56.326;43.882;2023-03-24T15:20:45;99242.16;;;7.01;89.77
70302;BME280;57706;56.326;43.882;2023-03-24T15:23:22;99242.19;;;6.84;90.60
70302;BME280;57706;56.326;43.882;2023-03-24T15:25:48;99238.91;;;6.99;91.15
70302;BME280;57706;56.326;43.882;2023-03-24T15:28:27;99253.75;;;7.07;89.56
70302;BME280;57706;56.326;43.882;2023-03-24T15:30:55;99253.81;;;6.90;90.96
70302;BME280;57706;56.326;43.882;2023-03-24T15:33:21;99253.97;;;6.88;90.09
70302;BME280;57706;56.326;43.882;2023-03-24T15:35:55;99257.84;;;7.01;89.55
70302;BME280;57706;56.326;43.882;2023-03-24T15:38:30;99251.47;;;7.03;89.06
70302;BME280;57706;56.326;43.882;2023-03-24T15:41:06;99270.63;;;6.79;90.30
70302;BME280;57706;56.326;43.882;2023-03-24T15:43:40;99270.28;;;6.91;90.50
70302;BME280;57706;56.326;43.882;2023-03-24T15:46:30;99283.34;;;6.91;89.94
70302;BME280;57706;56.326;43.882;2023-03-24T15:48:58;99279.41;;;6.95;90.02
70302;BME280;57706;56.326;43.882;2023-03-24T15:51:46;99281.72;;;6.81;90.44
70302;BME280;57706;56.326;43.882;2023-03-24T15:54:22;99280.09;;;6.80;90.92
70302;BME280;57706;56.326;43.882;2023-03-24T15:57:22;99279.59;;;6.77;90.55
70302;BME280;57706;56.326;43.882;2023-03-24T16:02:34;99284.31;;;6.81;90.44
70302;BME280;57706;56.326;43.882;2023-03-24T16:05:11;99289.88;;;6.86;89.63
70302;BME280;57706;56.326;43.882;2023-03-24T16:07:38;99289.19;;;7.01;88.97
70302;BME280;57706;56.326;43.882;2023-03-24T16:10:24;99285.66;;;6.85;89.76
70302;BME280;57706;56.326;43.882;2023-03-24T16:12:50;99291.19;;;6.82;90.50
70302;BME280;57706;56.326;43.882;2023-03-24T16:15:16;99283.69;;;6.87;90.16
70302;BME280;57706;56.326;43.882;2023-03-24T16:17:42;99289.19;;;7.01;89.55
70302;BME280;57706;56.326;43.882;2023-03-24T16:20:18;99292.47;;;7.03;88.85
70302;BME280;57706;56.326;43.882;2023-03-24T16:22:45;99300.31;;;6.95;88.52
70302;BME280;57706;56.326;43.882;2023-03-24T16:25:13;99296.41;;;6.74;90.47
70302;BME280;57706;56.326;43.882;2023-03-24T16:27:40;99303.94;;;6.77;90.43
70302;BME280;57706;56.326;43.882;2023-03-24T16:30:25;99296.91;;;6.69;90.17